Accueil
METAR-TAF:

METAR-TAF

Aéroports :

Aéroport international Ercan

Nicosie, Chypre

latitude: 35-09N, longitude: 033-30E, altitude: 91 m

Observation

Le bulletin a été fait il y a 43 minutes, à 22:50 UTC
Vent 15 kt de ouest/nord-ouest
Température 24°C
Humidité 69%
Pression 1012 hPa
Visibilité 10 km ou plus
Quelques nuages à une hauteur de 2500 ft

METAR: LCEN 212250Z 29015KT 9999 FEW025 24/18 Q1012 NOSIG RMK RWY11 30010KT

Heure: 02:33 (23:33 UTC)

Prévision

Le bulletin a été fait il y a 6 heures et 53 minutes, à 16:40 UTC
Prévision valable du 21 à 18 UTC au 22 à 18 UTC
Vent 15 kt de ouest
Visibilité 10 km ou plus
Quelques nuages à une hauteur de 2500 ft

TAF: LCEN 211640Z 2118/2218 28015KT 9999 FEW025

Observations et prévisions météorologiques de plus de 4000 aéroports (messages METAR et TAF).

Les stations disponibles sont représentées par des disques jaunes et rouges sur la carte.

Passer la souris dessus pour voir le nom de la station.

Cliquer dessus pour voir les observations et prévisions météorologiques.

Pour changer de carte: cliquez sur les boutons verts avec une croix noire pour zoomer, sur le bouton vert avec un tiret pour effectuer un zoom arrière, ou sur les flèches vertes pour les cartes adjacentes.


METAR-TAF: